sensor_id;sensor_type;location;lat;lon;timestamp;pressure;altitude;pressure_sealevel;temperature
41654;BMP280;30790;52.030;7.110;2022-10-16T00:01:30;100310.72;;;20.33
41654;BMP280;30790;52.030;7.110;2022-10-16T00:03:57;100314.78;;;20.31
41654;BMP280;30790;52.030;7.110;2022-10-16T00:06:24;100307.69;;;20.30
41654;BMP280;30790;52.030;7.110;2022-10-16T00:08:50;100318.06;;;20.33
41654;BMP280;30790;52.030;7.110;2022-10-16T00:11:22;100308.75;;;20.29
41654;BMP280;30790;52.030;7.110;2022-10-16T00:13:49;100306.59;;;20.31
41654;BMP280;30790;52.030;7.110;2022-10-16T00:16:15;100307.94;;;20.28
41654;BMP280;30790;52.030;7.110;2022-10-16T00:18:41;100319.66;;;20.29
41654;BMP280;30790;52.030;7.110;2022-10-16T00:21:12;100303.78;;;20.26
41654;BMP280;30790;52.030;7.110;2022-10-16T00:23:38;100327.31;;;20.32
41654;BMP280;30790;52.030;7.110;2022-10-16T00:26:06;100317.50;;;20.31
41654;BMP280;30790;52.030;7.110;2022-10-16T00:28:32;100303.47;;;20.22
41654;BMP280;30790;52.030;7.110;2022-10-16T00:30:58;100318.84;;;20.28
41654;BMP280;30790;52.030;7.110;2022-10-16T00:33:23;100316.09;;;20.28
41654;BMP280;30790;52.030;7.110;2022-10-16T00:35:49;100316.09;;;20.28
41654;BMP280;30790;52.030;7.110;2022-10-16T00:38:15;100312.56;;;20.28
41654;BMP280;30790;52.030;7.110;2022-10-16T00:40:41;100311.13;;;20.25
41654;BMP280;30790;52.030;7.110;2022-10-16T00:43:12;100312.47;;;20.23
41654;BMP280;30790;52.030;7.110;2022-10-16T00:45:39;100307.59;;;20.25
41654;BMP280;30790;52.030;7.110;2022-10-16T00:48:10;100299.09;;;20.21
41654;BMP280;30790;52.030;7.110;2022-10-16T00:50:38;100298.84;;;20.23
41654;BMP280;30790;52.030;7.110;2022-10-16T00:53:06;100295.56;;;20.21
41654;BMP280;30790;52.030;7.110;2022-10-16T00:55:32;100310.06;;;20.26
41654;BMP280;30790;52.030;7.110;2022-10-16T00:57:57;100302.97;;;20.25
41654;BMP280;30790;52.030;7.110;2022-10-16T01:00:25;100307.34;;;20.26
41654;BMP280;30790;52.030;7.110;2022-10-16T01:02:56;100310.88;;;20.27
41654;BMP280;30790;52.030;7.110;2022-10-16T01:05:45;100313.59;;;20.27
41654;BMP280;30790;52.030;7.110;2022-10-16T01:08:34;100310.56;;;20.23
41654;BMP280;30790;52.030;7.110;2022-10-16T01:11:10;100307.03;;;20.23
41654;BMP280;30790;52.030;7.110;2022-10-16T01:13:42;100307.59;;;20.25
41654;BMP280;30790;52.030;7.110;2022-10-16T01:16:52;100307.84;;;20.23
41654;BMP280;30790;52.030;7.110;2022-10-16T01:19:31;100307.59;;;20.25
41654;BMP280;30790;52.030;7.110;2022-10-16T01:22:00;100305.94;;;20.24
41654;BMP280;30790;52.030;7.110;2022-10-16T01:24:45;100303.22;;;20.24
41654;BMP280;30790;52.030;7.110;2022-10-16T01:27:14;100304.28;;;20.23
41654;BMP280;30790;52.030;7.110;2022-10-16T01:29:48;100295.56;;;20.21
41654;BMP280;30790;52.030;7.110;2022-10-16T01:32:35;100305.13;;;20.23
41654;BMP280;30790;52.030;7.110;2022-10-16T01:35:11;100307.03;;;20.23
41654;BMP280;30790;52.030;7.110;2022-10-16T01:37:43;100307.59;;;20.25
41654;BMP280;30790;52.030;7.110;2022-10-16T01:40:14;100303.22;;;20.24
41654;BMP280;30790;52.030;7.110;2022-10-16T01:42:44;100302.66;;;20.22
41654;BMP280;30790;52.030;7.110;2022-10-16T01:45:13;100311.38;;;20.24
41654;BMP280;30790;52.030;7.110;2022-10-16T01:47:39;100298.84;;;20.23
41654;BMP280;30790;52.030;7.110;2022-10-16T01:50:06;100287.13;;;20.22
41654;BMP280;30790;52.030;7.110;2022-10-16T01:52:35;100292.81;;;20.21
41654;BMP280;30790;52.030;7.110;2022-10-16T01:55:04;100297.19;;;20.22
41654;BMP280;30790;52.030;7.110;2022-10-16T01:57:36;100305.38;;;20.22
41654;BMP280;30790;52.030;7.110;2022-10-16T02:00:07;100292.81;;;20.21
41654;BMP280;30790;52.030;7.110;2022-10-16T02:02:34;100303.16;;;20.19
41654;BMP280;30790;52.030;7.110;2022-10-16T02:05:06;100305.63;;;20.20
41654;BMP280;30790;52.030;7.110;2022-10-16T02:07:34;100300.69;;;20.17
41654;BMP280;30790;52.030;7.110;2022-10-16T02:10:00;100299.34;;;20.20
41654;BMP280;30790;52.030;7.110;2022-10-16T02:12:31;100304.25;;;20.18
41654;BMP280;30790;52.030;7.110;2022-10-16T02:14:58;100302.59;;;20.17
41654;BMP280;30790;52.030;7.110;2022-10-16T02:17:24;100306.72;;;20.19
41654;BMP280;30790;52.030;7.110;2022-10-16T02:19:52;100302.34;;;20.18
41654;BMP280;30790;52.030;7.110;2022-10-16T02:22:27;100301.22;;;20.14
41654;BMP280;30790;52.030;7.110;2022-10-16T02:25:08;100314.31;;;20.17
41654;BMP280;30790;52.030;7.110;2022-10-16T02:30:15;100305.31;;;20.17
41654;BMP280;30790;52.030;7.110;2022-10-16T02:32:46;100309.94;;;20.16
41654;BMP280;30790;52.030;7.110;2022-10-16T02:35:13;100311.03;;;20.15
41654;BMP280;30790;52.030;7.110;2022-10-16T02:37:40;100316.22;;;20.17
41654;BMP280;30790;52.030;7.110;2022-10-16T02:40:07;100315.66;;;20.15
41654;BMP280;30790;52.030;7.110;2022-10-16T02:42:37;100317.31;;;20.16
41654;BMP280;30790;52.030;7.110;2022-10-16T02:45:04;100322.50;;;20.17
41654;BMP280;30790;52.030;7.110;2022-10-16T02:47:30;100315.09;;;20.13
41654;BMP280;30790;52.030;7.110;2022-10-16T02:49:55;100315.66;;;20.15
41654;BMP280;30790;52.030;7.110;2022-10-16T02:52:21;100318.88;;;20.12
41654;BMP280;30790;52.030;7.110;2022-10-16T02:54:46;100330.34;;;20.14
41654;BMP280;30790;52.030;7.110;2022-10-16T02:57:11;100330.94;;;20.16
41654;BMP280;30790;52.030;7.110;2022-10-16T02:59:37;100316.72;;;20.14
41654;BMP280;30790;52.030;7.110;2022-10-16T03:02:02;100308.56;;;20.14
41654;BMP280;30790;52.030;7.110;2022-10-16T03:04:28;100302.53;;;20.12
41654;BMP280;30790;52.030;7.110;2022-10-16T03:06:53;100304.19;;;20.13
41654;BMP280;30790;52.030;7.110;2022-10-16T03:09:18;100310.47;;;20.13
41654;BMP280;30790;52.030;7.110;2022-10-16T03:11:44;100283.59;;;20.00
41654;BMP280;30790;52.030;7.110;2022-10-16T03:14:09;100305.28;;;20.12
41654;BMP280;30790;52.030;7.110;2022-10-16T03:16:34;100306.03;;;20.07
41654;BMP280;30790;52.030;7.110;2022-10-16T03:18:59;100309.59;;;20.08
41654;BMP280;30790;52.030;7.110;2022-10-16T03:21:25;100325.09;;;20.07
41654;BMP280;30790;52.030;7.110;2022-10-16T03:23:50;100328.97;;;20.11
41654;BMP280;30790;52.030;7.110;2022-10-16T03:26:15;100331.44;;;20.13
41654;BMP280;30790;52.030;7.110;2022-10-16T03:28:40;100333.03;;;20.09
41654;BMP280;30790;52.030;7.110;2022-10-16T03:31:06;100328.16;;;20.11
41654;BMP280;30790;52.030;7.110;2022-10-16T03:33:31;100316.94;;;20.07
41654;BMP280;30790;52.030;7.110;2022-10-16T03:35:56;100313.69;;;20.10
41654;BMP280;30790;52.030;7.110;2022-10-16T03:38:22;100316.94;;;20.07
41654;BMP280;30790;52.030;7.110;2022-10-16T03:40:47;100324.34;;;20.12
41654;BMP280;30790;52.030;7.110;2022-10-16T03:43:12;100313.94;;;20.09
41654;BMP280;30790;52.030;7.110;2022-10-16T03:45:38;100309.06;;;20.11
41654;BMP280;30790;52.030;7.110;2022-10-16T03:48:03;100328.16;;;20.11
41654;BMP280;30790;52.030;7.110;2022-10-16T03:50:29;100326.50;;;20.10
41654;BMP280;30790;52.030;7.110;2022-10-16T03:52:54;100324.03;;;20.08
41654;BMP280;30790;52.030;7.110;2022-10-16T03:55:20;100307.94;;;20.06
41654;BMP280;30790;52.030;7.110;2022-10-16T03:57:45;100316.94;;;20.07
41654;BMP280;30790;52.030;7.110;2022-10-16T04:00:11;100323.72;;;20.04
41654;BMP280;30790;52.030;7.110;2022-10-16T04:02:36;100335.19;;;20.06
41654;BMP280;30790;52.030;7.110;2022-10-16T04:05:02;100336.31;;;20.11
41654;BMP280;30790;52.030;7.110;2022-10-16T04:07:27;100339.88;;;20.11
41654;BMP280;30790;52.030;7.110;2022-10-16T04:09:53;100333.78;;;20.04
41654;BMP280;30790;52.030;7.110;2022-10-16T04:12:18;100336.25;;;20.05
41654;BMP280;30790;52.030;7.110;2022-10-16T04:14:44;100338.72;;;20.07
41654;BMP280;30790;52.030;7.110;2022-10-16T04:17:09;100339.25;;;20.04
41654;BMP280;30790;52.030;7.110;2022-10-16T04:19:34;100331.88;;;20.04
41654;BMP280;30790;52.030;7.110;2022-10-16T04:21:59;100335.69;;;20.03
41654;BMP280;30790;52.030;7.110;2022-10-16T04:24:25;100344.44;;;20.05
41654;BMP280;30790;52.030;7.110;2022-10-16T04:26:50;100338.41;;;20.03
41654;BMP280;30790;52.030;7.110;2022-10-16T04:29:15;100339.50;;;20.02
41654;BMP280;30790;52.030;7.110;2022-10-16T04:31:40;100352.84;;;20.04
41654;BMP280;30790;52.030;7.110;2022-10-16T04:34:06;100356.16;;;20.06
41654;BMP280;30790;52.030;7.110;2022-10-16T04:36:31;100358.06;;;20.05
41654;BMP280;30790;52.030;7.110;2022-10-16T04:38:56;100360.47;;;20.02
41654;BMP280;30790;52.030;7.110;2022-10-16T04:41:22;100365.97;;;20.07
41654;BMP280;30790;52.030;7.110;2022-10-16T04:43:47;100355.28;;;20.00
41654;BMP280;30790;52.030;7.110;2022-10-16T04:46:12;100363.50;;;20.05
41654;BMP280;30790;52.030;7.110;2022-10-16T04:48:38;100363.19;;;20.02
41654;BMP280;30790;52.030;7.110;2022-10-16T04:51:03;100379.28;;;20.03
41654;BMP280;30790;52.030;7.110;2022-10-16T04:53:28;100381.19;;;20.03
41654;BMP280;30790;52.030;7.110;2022-10-16T04:55:54;100376.00;;;20.01
41654;BMP280;30790;52.030;7.110;2022-10-16T04:58:19;100369.94;;;19.99
41654;BMP280;30790;52.030;7.110;2022-10-16T05:00:45;100390.19;;;20.03
41654;BMP280;30790;52.030;7.110;2022-10-16T05:03:11;100379.53;;;20.02
41654;BMP280;30790;52.030;7.110;2022-10-16T05:05:42;100386.88;;;20.01
41654;BMP280;30790;52.030;7.110;2022-10-16T05:08:08;100380.84;;;19.99
41654;BMP280;30790;52.030;7.110;2022-10-16T05:10:33;100382.50;;;20.00
41654;BMP280;30790;52.030;7.110;2022-10-16T05:12:59;100389.94;;;20.05
41654;BMP280;30790;52.030;7.110;2022-10-16T05:15:24;100389.63;;;20.01
41654;BMP280;30790;52.030;7.110;2022-10-16T05:17:52;100382.03;;;19.87
41654;BMP280;30790;52.030;7.110;2022-10-16T05:20:18;100406.94;;;19.95
41654;BMP280;30790;52.030;7.110;2022-10-16T05:22:43;100397.19;;;19.99
41654;BMP280;30790;52.030;7.110;2022-10-16T05:25:08;100406.44;;;19.98
41654;BMP280;30790;52.030;7.110;2022-10-16T05:27:33;100411.81;;;19.93
41654;BMP280;30790;52.030;7.110;2022-10-16T05:29:59;100412.13;;;19.97
41654;BMP280;30790;52.030;7.110;2022-10-16T05:32:24;100430.72;;;20.00
41654;BMP280;30790;52.030;7.110;2022-10-16T05:34:50;100422.78;;;19.98
41654;BMP280;30790;52.030;7.110;2022-10-16T05:37:16;100428.84;;;20.00
41654;BMP280;30790;52.030;7.110;2022-10-16T05:39:41;100426.25;;;19.94
41654;BMP280;30790;52.030;7.110;2022-10-16T05:42:07;100440.31;;;20.02
41654;BMP280;30790;52.030;7.110;2022-10-16T05:44:32;100436.75;;;20.02
41654;BMP280;30790;52.030;7.110;2022-10-16T05:46:58;100425.94;;;19.90
41654;BMP280;30790;52.030;7.110;2022-10-16T05:49:23;100427.84;;;19.90
41654;BMP280;30790;52.030;7.110;2022-10-16T05:51:48;100435.75;;;19.91
41654;BMP280;30790;52.030;7.110;2022-10-16T05:54:14;100431.06;;;19.87
41654;BMP280;30790;52.030;7.110;2022-10-16T05:56:39;100437.97;;;19.94
41654;BMP280;30790;52.030;7.110;2022-10-16T05:59:05;100453.75;;;19.92
41654;BMP280;30790;52.030;7.110;2022-10-16T06:01:31;100450.66;;;19.22
41654;BMP280;30790;52.030;7.110;2022-10-16T06:03:57;100468.47;;;18.72
41654;BMP280;30790;52.030;7.110;2022-10-16T06:06:26;100466.38;;;18.39
41654;BMP280;30790;52.030;7.110;2022-10-16T06:08:52;100465.41;;;18.34
41654;BMP280;30790;52.030;7.110;2022-10-16T06:11:23;100470.72;;;19.04
41654;BMP280;30790;52.030;7.110;2022-10-16T06:13:53;100479.22;;;19.53
41654;BMP280;30790;52.030;7.110;2022-10-16T06:16:19;100481.09;;;19.81
41654;BMP280;30790;52.030;7.110;2022-10-16T06:18:46;100473.97;;;19.96
41654;BMP280;30790;52.030;7.110;2022-10-16T06:21:17;100477.00;;;20.17
41654;BMP280;30790;52.030;7.110;2022-10-16T06:23:43;100479.88;;;20.27
41654;BMP280;30790;52.030;7.110;2022-10-16T06:26:10;100490.53;;;20.45
41654;BMP280;30790;52.030;7.110;2022-10-16T06:28:37;100497.19;;;20.54
41654;BMP280;30790;52.030;7.110;2022-10-16T06:31:04;100499.00;;;20.65
41654;BMP280;30790;52.030;7.110;2022-10-16T06:33:30;100500.56;;;20.61
41654;BMP280;30790;52.030;7.110;2022-10-16T06:36:03;100498.16;;;20.65
41654;BMP280;30790;52.030;7.110;2022-10-16T06:38:29;100496.94;;;20.78
41654;BMP280;30790;52.030;7.110;2022-10-16T06:40:54;100494.78;;;20.80
41654;BMP280;30790;52.030;7.110;2022-10-16T06:43:19;100507.53;;;20.74
41654;BMP280;30790;52.030;7.110;2022-10-16T06:45:51;100515.63;;;20.86
41654;BMP280;30790;52.030;7.110;2022-10-16T06:48:16;100533.44;;;20.93
41654;BMP280;30790;52.030;7.110;2022-10-16T06:50:41;100518.41;;;20.91
41654;BMP280;30790;52.030;7.110;2022-10-16T06:53:07;100509.50;;;20.79
41654;BMP280;30790;52.030;7.110;2022-10-16T06:55:32;100526.94;;;20.78
41654;BMP280;30790;52.030;7.110;2022-10-16T06:57:57;100537.03;;;20.77
41654;BMP280;30790;52.030;7.110;2022-10-16T07:00:28;100556.44;;;20.81
41654;BMP280;30790;52.030;7.110;2022-10-16T07:02:54;100548.34;;;20.64
41654;BMP280;30790;52.030;7.110;2022-10-16T07:05:19;100574.13;;;20.95
41654;BMP280;30790;52.030;7.110;2022-10-16T07:07:44;100561.59;;;20.99
41654;BMP280;30790;52.030;7.110;2022-10-16T07:10:09;100573.72;;;21.08
41654;BMP280;30790;52.030;7.110;2022-10-16T07:12:35;100578.44;;;21.13
41654;BMP280;30790;52.030;7.110;2022-10-16T07:15:00;100582.25;;;21.12
41654;BMP280;30790;52.030;7.110;2022-10-16T07:17:25;100588.84;;;21.16
41654;BMP280;30790;52.030;7.110;2022-10-16T07:19:51;100583.13;;;21.17
41654;BMP280;30790;52.030;7.110;2022-10-16T07:22:18;100586.94;;;21.16
41654;BMP280;30790;52.030;7.110;2022-10-16T07:24:43;100599.50;;;21.17
41654;BMP280;30790;52.030;7.110;2022-10-16T07:27:09;100615.47;;;21.25
41654;BMP280;30790;52.030;7.110;2022-10-16T07:29:34;100601.31;;;21.28
41654;BMP280;30790;52.030;7.110;2022-10-16T07:32:01;100605.94;;;21.28
41654;BMP280;30790;52.030;7.110;2022-10-16T07:34:27;100618.00;;;21.32
41654;BMP280;30790;52.030;7.110;2022-10-16T07:36:52;100607.38;;;21.36
41654;BMP280;30790;52.030;7.110;2022-10-16T07:39:17;100618.81;;;21.33
41654;BMP280;30790;52.030;7.110;2022-10-16T07:41:43;100619.09;;;21.31
41654;BMP280;30790;52.030;7.110;2022-10-16T07:44:08;100617.44;;;21.30
41654;BMP280;30790;52.030;7.110;2022-10-16T07:46:34;100627.84;;;21.33
41654;BMP280;30790;52.030;7.110;2022-10-16T07:49:01;100622.91;;;21.30
41654;BMP280;30790;52.030;7.110;2022-10-16T07:51:26;100616.34;;;21.31
41654;BMP280;30790;52.030;7.110;2022-10-16T07:53:52;100634.06;;;21.28
41654;BMP280;30790;52.030;7.110;2022-10-16T07:56:19;100642.31;;;21.34
41654;BMP280;30790;52.030;7.110;2022-10-16T07:58:45;100645.97;;;21.39
41654;BMP280;30790;52.030;7.110;2022-10-16T08:01:13;100650.25;;;21.35
41654;BMP280;30790;52.030;7.110;2022-10-16T08:03:42;100655.53;;;21.42
41654;BMP280;30790;52.030;7.110;2022-10-16T08:06:08;100655.53;;;21.42
41654;BMP280;30790;52.030;7.110;2022-10-16T08:08:33;100654.72;;;21.41
41654;BMP280;30790;52.030;7.110;2022-10-16T08:10:59;100656.06;;;21.39
41654;BMP280;30790;52.030;7.110;2022-10-16T08:13:25;100658.03;;;21.43
41654;BMP280;30790;52.030;7.110;2022-10-16T08:15:51;100666.41;;;21.37
41654;BMP280;30790;52.030;7.110;2022-10-16T08:18:16;100662.81;;;21.36
41654;BMP280;30790;52.030;7.110;2022-10-16T08:20:42;100662.16;;;21.46
41654;BMP280;30790;52.030;7.110;2022-10-16T08:23:10;100675.03;;;21.50
41654;BMP280;30790;52.030;7.110;2022-10-16T08:25:36;100669.88;;;21.54
41654;BMP280;30790;52.030;7.110;2022-10-16T08:28:06;100666.00;;;21.50
41654;BMP280;30790;52.030;7.110;2022-10-16T08:30:32;100668.28;;;21.58
41654;BMP280;30790;52.030;7.110;2022-10-16T08:32:57;100666.22;;;21.65
41654;BMP280;30790;52.030;7.110;2022-10-16T08:35:23;100685.81;;;21.62
41654;BMP280;30790;52.030;7.110;2022-10-16T08:37:49;100677.63;;;21.62
41654;BMP280;30790;52.030;7.110;2022-10-16T08:40:24;100687.56;;;21.68
41654;BMP280;30790;52.030;7.110;2022-10-16T08:45:43;100701.94;;;21.64
41654;BMP280;30790;52.030;7.110;2022-10-16T08:48:17;100712.06;;;21.63
41654;BMP280;30790;52.030;7.110;2022-10-16T08:50:43;100716.13;;;21.39
41654;BMP280;30790;52.030;7.110;2022-10-16T08:53:15;100722.22;;;21.46
41654;BMP280;30790;52.030;7.110;2022-10-16T08:55:45;100713.06;;;21.57
41654;BMP280;30790;52.030;7.110;2022-10-16T08:58:13;100724.06;;;21.62
41654;BMP280;30790;52.030;7.110;2022-10-16T09:00:40;100727.44;;;21.69
41654;BMP280;30790;52.030;7.110;2022-10-16T09:03:24;100737.34;;;21.75
41654;BMP280;30790;52.030;7.110;2022-10-16T09:19:55;100745.44;;;21.65
41654;BMP280;30790;52.030;7.110;2022-10-16T09:22:27;100745.50;;;21.70
41654;BMP280;30790;52.030;7.110;2022-10-16T09:24:55;100753.44;;;21.72
41654;BMP280;30790;52.030;7.110;2022-10-16T09:27:24;100755.84;;;21.68
41654;BMP280;30790;52.030;7.110;2022-10-16T09:29:49;100765.75;;;21.36
41654;BMP280;30790;52.030;7.110;2022-10-16T09:32:19;100757.84;;;21.17
41654;BMP280;30790;52.030;7.110;2022-10-16T09:34:49;100768.81;;;21.22
41654;BMP280;30790;52.030;7.110;2022-10-16T09:37:19;100763.75;;;21.48
41654;BMP280;30790;52.030;7.110;2022-10-16T09:39:50;100760.47;;;21.46
41654;BMP280;30790;52.030;7.110;2022-10-16T09:42:21;100763.63;;;21.38
41654;BMP280;30790;52.030;7.110;2022-10-16T09:44:49;100782.94;;;21.53
41654;BMP280;30790;52.030;7.110;2022-10-16T09:47:21;100773.63;;;21.49
41654;BMP280;30790;52.030;7.110;2022-10-16T09:50:20;100779.66;;;21.51
41654;BMP280;30790;52.030;7.110;2022-10-16T09:52:46;100775.84;;;21.52
41654;BMP280;30790;52.030;7.110;2022-10-16T09:55:14;100783.59;;;21.60
41654;BMP280;30790;52.030;7.110;2022-10-16T09:57:53;100789.88;;;21.60
41654;BMP280;30790;52.030;7.110;2022-10-16T10:00:20;100778.63;;;21.57
41654;BMP280;30790;52.030;7.110;2022-10-16T10:02:46;100787.78;;;21.46
41654;BMP280;30790;52.030;7.110;2022-10-16T10:05:38;100781.22;;;21.47
41654;BMP280;30790;52.030;7.110;2022-10-16T10:08:04;100777.84;;;21.40
41654;BMP280;30790;52.030;7.110;2022-10-16T10:10:33;100787.59;;;21.52
41654;BMP280;30790;52.030;7.110;2022-10-16T10:12:59;100794.38;;;21.50
41654;BMP280;30790;52.030;7.110;2022-10-16T10:15:32;100798.94;;;21.44
41654;BMP280;30790;52.030;7.110;2022-10-16T10:17:58;100803.59;;;21.44
41654;BMP280;30790;52.030;7.110;2022-10-16T10:22:53;100790.94;;;21.38
41654;BMP280;30790;52.030;7.110;2022-10-16T10:29:02;100807.97;;;21.45
41654;BMP280;30790;52.030;7.110;2022-10-16T10:31:34;100817.25;;;21.44
41654;BMP280;30790;52.030;7.110;2022-10-16T10:36:40;100812.78;;;21.38
41654;BMP280;30790;52.030;7.110;2022-10-16T10:39:32;100813.00;;;21.36
41654;BMP280;30790;52.030;7.110;2022-10-16T10:42:31;100813.25;;;21.35
41654;BMP280;30790;52.030;7.110;2022-10-16T10:50:49;100820.13;;;21.20
41654;BMP280;30790;52.030;7.110;2022-10-16T10:53:46;100820.38;;;21.19
41654;BMP280;30790;52.030;7.110;2022-10-16T10:56:42;100809.94;;;20.99
41654;BMP280;30790;52.030;7.110;2022-10-16T11:07:35;100825.66;;;21.09
41654;BMP280;30790;52.030;7.110;2022-10-16T11:10:11;100830.19;;;21.03
41654;BMP280;30790;52.030;7.110;2022-10-16T11:12:44;100807.63;;;20.91
41654;BMP280;30790;52.030;7.110;2022-10-16T11:15:14;100838.38;;;21.03
41654;BMP280;30790;52.030;7.110;2022-10-16T11:17:46;100825.25;;;21.00
41654;BMP280;30790;52.030;7.110;2022-10-16T11:20:24;100830.44;;;21.02
41654;BMP280;30790;52.030;7.110;2022-10-16T11:22:55;100828.88;;;21.06
41654;BMP280;30790;52.030;7.110;2022-10-16T11:25:24;100828.97;;;21.11
41654;BMP280;30790;52.030;7.110;2022-10-16T11:41:26;100848.59;;;21.24
41654;BMP280;30790;52.030;7.110;2022-10-16T11:44:06;100852.88;;;21.20
41654;BMP280;30790;52.030;7.110;2022-10-16T11:46:36;100856.78;;;21.24
41654;BMP280;30790;52.030;7.110;2022-10-16T11:49:09;100862.25;;;21.24
41654;BMP280;30790;52.030;7.110;2022-10-16T11:51:50;100851.66;;;21.28
41654;BMP280;30790;52.030;7.110;2022-10-16T11:57:21;100855.22;;;21.28
41654;BMP280;30790;52.030;7.110;2022-10-16T11:59:52;100853.81;;;21.26
41654;BMP280;30790;52.030;7.110;2022-10-16T12:02:34;100857.88;;;21.23
41654;BMP280;30790;52.030;7.110;2022-10-16T12:07:41;100860.91;;;21.10
41654;BMP280;30790;52.030;7.110;2022-10-16T12:10:25;100871.00;;;21.10
41654;BMP280;30790;52.030;7.110;2022-10-16T12:12:51;100870.19;;;21.09
41654;BMP280;30790;52.030;7.110;2022-10-16T12:15:23;100865.38;;;21.16
41654;BMP280;30790;52.030;7.110;2022-10-16T12:17:49;100871.66;;;21.17
41654;BMP280;30790;52.030;7.110;2022-10-16T12:20:19;100877.13;;;21.17
41654;BMP280;30790;52.030;7.110;2022-10-16T12:22:51;100879.28;;;21.15
41654;BMP280;30790;52.030;7.110;2022-10-16T12:25:39;100883.16;;;21.19
41654;BMP280;30790;52.030;7.110;2022-10-16T12:30:40;100892.19;;;21.19
41654;BMP280;30790;52.030;7.110;2022-10-16T12:33:23;100889.69;;;21.18
41654;BMP280;30790;52.030;7.110;2022-10-16T12:35:50;100894.91;;;21.19
41654;BMP280;30790;52.030;7.110;2022-10-16T12:38:21;100894.31;;;21.17
41654;BMP280;30790;52.030;7.110;2022-10-16T12:41:05;100894.91;;;21.19
41654;BMP280;30790;52.030;7.110;2022-10-16T12:43:39;100885.63;;;21.20
41654;BMP280;30790;52.030;7.110;2022-10-16T12:48:37;100880.69;;;21.17
41654;BMP280;30790;52.030;7.110;2022-10-16T12:56:58;100894.31;;;21.17
41654;BMP280;30790;52.030;7.110;2022-10-16T13:00:04;100899.78;;;21.17
41654;BMP280;30790;52.030;7.110;2022-10-16T13:03:02;100898.47;;;21.20
41654;BMP280;30790;52.030;7.110;2022-10-16T13:11:37;100900.94;;;21.21
41654;BMP280;30790;52.030;7.110;2022-10-16T13:19:27;100907.00;;;21.23
41654;BMP280;30790;52.030;7.110;2022-10-16T13:22:11;100914.22;;;21.29
41654;BMP280;30790;52.030;7.110;2022-10-16T13:30:16;100908.88;;;21.23
41654;BMP280;30790;52.030;7.110;2022-10-16T13:32:48;100908.41;;;21.26
41654;BMP280;30790;52.030;7.110;2022-10-16T13:35:22;100901.13;;;21.32
41654;BMP280;30790;52.030;7.110;2022-10-16T13:37:48;100914.91;;;21.37
41654;BMP280;30790;52.030;7.110;2022-10-16T13:40:23;100923.16;;;21.42
41654;BMP280;30790;52.030;7.110;2022-10-16T13:42:50;100920.94;;;21.39
41654;BMP280;30790;52.030;7.110;2022-10-16T13:45:25;100922.09;;;21.43
41654;BMP280;30790;52.030;7.110;2022-10-16T13:48:09;100921.00;;;21.44
41654;BMP280;30790;52.030;7.110;2022-10-16T13:50:37;100921.00;;;21.44
41654;BMP280;30790;52.030;7.110;2022-10-16T13:53:07;100919.19;;;21.33
41654;BMP280;30790;52.030;7.110;2022-10-16T13:55:37;100920.34;;;21.37
41654;BMP280;30790;52.030;7.110;2022-10-16T13:58:21;100921.31;;;21.31
41654;BMP280;30790;52.030;7.110;2022-10-16T14:00:55;100924.06;;;21.31
41654;BMP280;30790;52.030;7.110;2022-10-16T14:03:22;100925.63;;;21.26
41654;BMP280;30790;52.030;7.110;2022-10-16T14:05:56;100931.09;;;21.26
41654;BMP280;30790;52.030;7.110;2022-10-16T14:08:24;100929.84;;;21.34
41654;BMP280;30790;52.030;7.110;2022-10-16T14:10:53;100922.00;;;21.38
41654;BMP280;30790;52.030;7.110;2022-10-16T14:13:43;100931.69;;;21.45
41654;BMP280;30790;52.030;7.110;2022-10-16T14:16:15;100930.44;;;21.53
41654;BMP280;30790;52.030;7.110;2022-10-16T14:18:41;100916.03;;;21.57
41654;BMP280;30790;52.030;7.110;2022-10-16T14:21:11;100927.53;;;21.59
41654;BMP280;30790;52.030;7.110;2022-10-16T14:23:38;100924.81;;;21.59
41654;BMP280;30790;52.030;7.110;2022-10-16T14:28:36;100931.41;;;21.64
41654;BMP280;30790;52.030;7.110;2022-10-16T14:31:22;100929.28;;;21.66
41654;BMP280;30790;52.030;7.110;2022-10-16T14:33:49;100937.56;;;21.71
41654;BMP280;30790;52.030;7.110;2022-10-16T14:36:15;100942.69;;;21.67
41654;BMP280;30790;52.030;7.110;2022-10-16T14:38:49;100937.25;;;21.67
41654;BMP280;30790;52.030;7.110;2022-10-16T14:41:22;100939.88;;;21.62
41654;BMP280;30790;52.030;7.110;2022-10-16T14:43:54;100939.22;;;21.72
41654;BMP280;30790;52.030;7.110;2022-10-16T14:46:21;100938.97;;;21.73
41654;BMP280;30790;52.030;7.110;2022-10-16T14:48:53;100944.75;;;21.77
41654;BMP280;30790;52.030;7.110;2022-10-16T14:51:20;100947.75;;;21.75
41654;BMP280;30790;52.030;7.110;2022-10-16T14:53:46;100954.94;;;21.81
41654;BMP280;30790;52.030;7.110;2022-10-16T14:56:18;100944.00;;;21.81
41654;BMP280;30790;52.030;7.110;2022-10-16T14:58:44;100963.13;;;21.81
41654;BMP280;30790;52.030;7.110;2022-10-16T15:01:10;100946.41;;;21.78
41654;BMP280;30790;52.030;7.110;2022-10-16T15:03:36;100959.56;;;21.81
41654;BMP280;30790;52.030;7.110;2022-10-16T15:06:02;100949.97;;;21.78
41654;BMP280;30790;52.030;7.110;2022-10-16T15:08:27;100945.34;;;21.79
41654;BMP280;30790;52.030;7.110;2022-10-16T15:10:52;100947.00;;;21.80
41654;BMP280;30790;52.030;7.110;2022-10-16T15:13:17;100946.41;;;21.78
41654;BMP280;30790;52.030;7.110;2022-10-16T15:15:47;100940.19;;;21.82
41654;BMP280;30790;52.030;7.110;2022-10-16T15:18:14;100951.13;;;21.82
41654;BMP280;30790;52.030;7.110;2022-10-16T15:20:46;100950.53;;;21.80
41654;BMP280;30790;52.030;7.110;2022-10-16T15:23:18;100953.28;;;21.80
41654;BMP280;30790;52.030;7.110;2022-10-16T15:25:46;100944.00;;;21.81
41654;BMP280;30790;52.030;7.110;2022-10-16T15:28:13;100944.81;;;21.82
41654;BMP280;30790;52.030;7.110;2022-10-16T15:30:39;100932.50;;;21.79
41654;BMP280;30790;52.030;7.110;2022-10-16T15:33:08;100949.47;;;21.81
41654;BMP280;30790;52.030;7.110;2022-10-16T15:35:35;100949.97;;;21.78
41654;BMP280;30790;52.030;7.110;2022-10-16T15:38:00;100946.66;;;21.76
41654;BMP280;30790;52.030;7.110;2022-10-16T15:40:25;100950.31;;;21.65